Kristine Bonnevie — LGWS — position and weather

sailwx.info

Track history (hours):
 
Tides and Currents Weather Stations Pressure Air Temp Water Temp Dewpoint Dewpoint Depression Visibility Wind Speed Wind Dir Waves Ship Positions

Oceanographic research ship Kristine Bonnevie (Norway)

Detailed information on ship capabilities available from University of Delaware's Ocean Information Center.

Last reported at 2020-Jan-25 05:00 UTC. Time now 2020-Jan-25 06:09 UTC.
Position N 57°36' E 006°36'.

Length 56.7 m; beam 12.5 m.

Type: Fishing. MMSI: 258523000.

Wind from 260 at 19 knots

Barometer 1012.2 mb
Air temperature 6.7 ° C
Dewpoint 3.7 ° C
Water temperature 6.7 ° C

Date/timePositionNaut miles runAvg speedWind from/ knotsBaromVisibWave heightAir tempDewpointWater temp
2020-Jan-25 05:00N 57°36' E 006°36'10 9.6 260 / 191012.2 6.7 3.7 6.7
2020-Jan-25 04:00N 57°36' E 006°54'815.7 270 / 191012.1 6.6 3.7 6.9
2020-Jan-25 03:30N 57°40' E 007°06'510.3
2020-Jan-25 03:00N 57°36' E 007°12'3 3.2 280 / 211012.2 6.7 3.5 6.7
2020-Jan-25 02:00N 57°36' E 007°18'8 8.0 270 / 191012.5 6.7 3.5 6.6
2020-Jan-25 01:00N 57°41' E 007°29'6411.4
2020-Jan-25 01:00N 57°36' E 007°24'817.1 280 / 251012.5 6.7 2.8 6.8
2020-Jan-25 00:31N 57°41' E 007°36'612.1
2020-Jan-25 00:00N 57°36' E 007°42'9 8.8 280 / 251012.7 6.7 2.8 6.7
2020-Jan-24 23:00N 57°42' E 007°54'1289.4 280 / 251012.2 6.7 2.4 6.3
2020-Jan-24 22:59N 57°43' E 007°55'3 2.8
2020-Jan-24 22:00N 57°42' E 008°00'7 6.8 280 / 251011.8 6.7 2.4 6.3
2020-Jan-24 21:00N 57°36' E 007°54'1 1.1 270 / 211012.2 6.7 3.0 6.3
2020-Jan-24 20:30N 57°36' E 007°55'2 3.2
2020-Jan-24 20:00N 57°36' E 007°58'2247.3
2020-Jan-24 20:00N 57°36' E 007°54'3 6.3 280 / 231012.1 6.7 2.5 6.3
2020-Jan-24 19:30N 57°37' E 007°59'814.6
2020-Jan-24 19:00N 57°30' E 007°54'7 6.8 280 / 211012.2 6.9 2.9 6.7
2020-Jan-24 18:00N 57°24' E 008°00'7 6.8 290 / 231012.2 7.0 2.8 6.8
2020-Jan-24 17:00N 57°30' E 008°06'1312.8 270 / 231011.6 7.0 3.5 7.0
2020-Jan-24 16:00N 57°35' E 008°28'3 3.2
2020-Jan-24 15:00N 57°36' E 008°33'2318.3
2020-Jan-24 15:00N 57°36' E 008°30'3 2.7 270 / 271011.1 7.0 3.7 6.8
2020-Jan-24 14:00N 57°39' E 008°29'4457.9
2020-Jan-24 14:00N 57°36' E 008°24'3 3.2 270 / 291011.1 7.2 3.9 6.5
2020-Jan-24 13:00N 57°36' E 008°30'8 7.8 270 / 251011.3 7.4 4.2 6.4
2020-Jan-24 12:00N 57°43' E 008°25'2135.1
2020-Jan-24 12:00N 57°42' E 008°24'4 3.7 260 / 271011.2 7.2 4.5 6.5
2020-Jan-24 11:00N 57°44' E 008°29'4319.2
2020-Jan-24 11:00N 57°42' E 008°24'714.6 260 / 271011.3 7.0 4.6 6.5
2020-Jan-24 10:30N 57°44' E 008°37'5 9.5
2020-Jan-24 10:00N 57°44' E 008°46'3300.5
2020-Jan-24 10:00N 57°42' E 008°42'6 6.4 260 / 291010.7 7.0 4.6 6.5
2020-Jan-24 09:00N 57°42' E 008°54'6 6.0 260 / 251011.7 6.8 4.9 6.6
2020-Jan-24 08:00N 57°48' E 008°54'4 8.0 250 / 291010.9 7.0 5.4 6.6
2020-Jan-24 07:30N 57°49' E 009°01'1 1.7
2020-Jan-24 07:00N 57°49' E 009°03'2275.4
2020-Jan-24 07:00N 57°48' E 009°00'0 0.0 250 / 251011.2 7.1 5.4 6.6
2020-Jan-24 06:00N 57°48' E 009°00'3 3.2 240 / 291011.3 7.1 5.4 6.5
2020-Jan-24 05:00N 57°48' E 009°06'3 3.2 240 / 271011.6 7.0 5.3 6.4
2020-Jan-24 04:00N 57°48' E 009°00'714.2 250 / 271012.2 7.0 5.1 6.4
2020-Jan-24 03:31N 57°54' E 009°05'1 1.5
2020-Jan-24 03:00N 57°54' E 009°06'2 3.1 250 / 291012.0 7.0 5.3 6.4
2020-Jan-24 02:30N 57°55' E 009°04'2 4.1
2020-Jan-24 02:00N 57°54' E 009°00'0 0.0 250 / 291013.0 6.7 5.2 6.3
2020-Jan-24 01:00N 57°54' E 009°00'3 6.1 250 / 291013.5 6.8 5.3 6.4
2020-Jan-24 00:30N 57°55' E 009°05'0 0.5
2020-Jan-23 23:30N 57°55' E 009°06'1 2.2
2020-Jan-23 23:00N 57°54' E 009°06'3 2.9 250 / 311015.5 6.8 4.9 6.3
2020-Jan-23 22:00N 57°55' E 009°11'31058.6
2020-Jan-23 22:00N 57°54' E 009°06'3 3.2 260 / 311016.2 7.2 5.1 6.3
2020-Jan-23 21:00N 57°54' E 009°12'3 1.6 260 / 291016.0 7.2 5.1 6.4
2020-Jan-23 19:00N 57°54' E 009°18'7 6.8 260 / 251016.9 7.1 5.5 6.4
2020-Jan-23 18:00N 57°48' E 009°24'9 8.8 260 / 291016.7 7.0 5.4 6.7
2020-Jan-23 17:00N 57°42' E 009°36'4 7.2 260 / 291017.6 6.9 5.5 6.9
2020-Jan-23 16:29N 57°44' E 009°42'815.7
2020-Jan-23 16:00N 57°36' E 009°42'8 9.3 260 / 291018.2 7.5 5.9 7.2
2020-Jan-23 15:08N 57°37' E 009°57'749.8
2020-Jan-23 15:00N 57°30' E 009°54'0 0.0 250 / 231019.2 7.7 6.0 5.8
2020-Jan-23 14:00N 57°30' E 009°54'0 0.0 250 / 231019.8 7.7 6.2 5.8
2020-Jan-23 13:00N 57°30' E 009°54'0 0.0 250 / 191020.7 7.5 6.2 5.8
2020-Jan-23 12:00N 57°30' E 009°54'0 0.0 250 / 211021.6 7.2 5.9 5.8
2020-Jan-23 11:00N 57°30' E 009°54'6 6.0 250 / 211022.5 7.0 5.7 5.7
2020-Jan-23 10:00N 57°36' E 009°54'334.0 250 / 271022.8 7.0 5.5 6.3
2020-Jan-23 09:55N 57°39' E 009°53'1010.8
2020-Jan-23 09:00N 57°42' E 009°36'1413.6 240 / 271022.8 6.9 5.3 7.2
2020-Jan-23 08:00N 57°54' E 009°24'3 3.2 260 / 271023.3 6.5 5.0 6.5
2020-Jan-23 07:00N 57°54' E 009°30'0 0.0 260 / 271023.5 6.5 4.6 6.7
2020-Jan-23 06:00N 57°54' E 009°30'58275.5 260 / 291024.1 6.2 4.2 6.7
2020-Jan-23 05:59N 57°58' E 009°33'1 2.8
2020-Jan-23 05:30N 57°59' E 009°35'1 2.4
2020-Jan-23 05:00N 58°00' E 009°36'3 3.2 270 / 271024.4 6.4 3.2 6.7
2020-Jan-23 04:00N 58°00' E 009°30'3 3.2 270 / 291024.7 6.4 2.1 6.7
2020-Jan-23 03:00N 58°00' E 009°36'9 8.7 250 / 251025.2 6.2 0.4 6.8
2020-Jan-23 02:00N 58°06' E 009°48'3 3.2 250 / 161026.4 5.7-0.1 6.9
2020-Jan-23 01:00N 58°06' E 009°54'7 6.8 240 / 161027.1 6.1 0.5 6.9
2020-Jan-23 00:00N 58°00' E 010°00'6 6.0 200 / 141027.9 6.5 1.7 6.8
2020-Jan-22 23:00N 58°06' E 010°00'1212.4 210 / 101028.2 6.5-0.3 6.9
2020-Jan-22 22:00N 58°18' E 009°54'0 0.0 220 / 121028.4 6.5 0.2 7.0
2020-Jan-22 21:00N 58°18' E 009°54'3 3.2 230 / 101029.0 6.5-0.7 6.9
2020-Jan-22 20:00N 58°18' E 009°48'10 9.7 260 / 101029.0 6.5-1.2 7.0
2020-Jan-22 19:00N 58°14' E 010°05'41653.7
2020-Jan-22 19:00N 58°12' E 010°00'1111.2 260 / 81029.4 6.5 0.6 7.1
2020-Jan-22 18:00N 58°06' E 010°18'3 3.2 270 / 21029.0 6.0-0.1 7.0
2020-Jan-22 17:00N 58°06' E 010°12'6 6.3 040 / 21028.7 6.2-0.5 7.1
2020-Jan-22 16:00N 58°06' E 010°24'4 3.6 040 / 61028.5 6.3-0.6 7.0
2020-Jan-22 15:00N 58°05' E 010°30'5318.7
2020-Jan-22 15:00N 58°00' E 010°30'3 3.2 330 / 101028.2 6.9-0.0 7.0
2020-Jan-22 14:00N 58°00' E 010°36'5 5.5 340 / 121028.2 7.4 0.1 7.1
2020-Jan-22 13:00N 58°00' E 010°46'2145.1
2020-Jan-22 13:00N 58°00' E 010°42'6 6.4 340 / 141028.2 7.5 0.8 7.1
2020-Jan-22 12:00N 58°00' E 010°54'2 1.7 330 / 161027.5 7.5 0.7 7.3
2020-Jan-22 11:00N 58°01' E 010°56'2159.5
2020-Jan-22 11:00N 58°00' E 010°54'3 3.2 320 / 121027.5 8.4 2.0 7.2
2020-Jan-22 10:00N 58°00' E 010°48'1010.3 320 / 191026.5 9.1 0.9 7.1
2020-Jan-22 09:00N 58°09' E 010°40'4256.8
2020-Jan-22 09:00N 58°06' E 010°36'4 9.2 300 / 161026.0 7.6 2.3 7.0
2020-Jan-22 08:30N 58°10' E 010°38'4 8.7
2020-Jan-22 08:00N 58°06' E 010°36'6 6.0 300 / 191025.0 7.4 2.4 7.1
2020-Jan-22 07:00N 58°12' E 010°36'3 3.2 290 / 231023.7 7.4 2.4 6.9
2020-Jan-22 06:00N 58°12' E 010°42'0 0.0 280 / 251023.1 7.4 2.6 7.1
2020-Jan-22 05:00N 58°12' E 010°42'2 2.5 280 / 291022.4 7.3 2.6 7.0
2020-Jan-22 04:00N 58°12' E 010°37'0 0.2
2020-Jan-22 03:30N 58°12' E 010°37'2 0.5
2020-Jan-22 00:00N 58°12' E 010°41'8 2.3
2020-Jan-21 20:30N 58°20' E 010°36'8 5.3
2020-Jan-21 19:00N 58°12' E 010°36'9 1.7 270 / 311022.2 7.2 1.1 7.0
2020-Jan-21 14:00N 58°18' E 010°24'3 2.8 280 / 231023.0 9.1 2.9 7.0
2020-Jan-21 13:00N 58°21' E 010°24'4 4.1
2020-Jan-21 12:00N 58°18' E 010°18'816.5 260 / 291022.9 8.6 4.1 7.0
2020-Jan-21 11:30N 58°25' E 010°27'6 5.5
2020-Jan-21 10:30N 58°30' E 010°30'6 4.0
2020-Jan-21 09:00N 58°24' E 010°30'7 6.8 240 / 311022.1 8.5 5.4 7.0
2020-Jan-21 08:00N 58°30' E 010°36'1 2.8 240 / 271022.2 8.4 5.8 6.9
2020-Jan-21 07:30N 58°31' E 010°38'1 2.2
2020-Jan-21 07:00N 58°30' E 010°36'1 0.2
2020-Jan-21 04:00N 58°30' E 010°37'186.3
2020-Jan-21 04:00N 58°30' E 010°36'1 1.4 240 / 331023.0 7.5 5.4 6.9
2020-Jan-21 03:30N 58°30' E 010°37'0 0.3
2020-Jan-21 03:00N 58°30' E 010°38'1104.6
2020-Jan-21 03:00N 58°30' E 010°36'0 0.0 240 / 371022.8 7.9 5.5 6.9
2020-Jan-21 02:00N 58°30' E 010°36'1 2.1 240 / 351023.2 7.7 5.5 7.0
2020-Jan-21 01:30N 58°30' E 010°38'0 0.2
2020-Jan-21 01:00N 58°30' E 010°38'6444.5
2020-Jan-21 01:00N 58°24' E 010°36'6 6.0 240 / 331024.2 7.6 5.4 7.0
2020-Jan-21 00:00N 58°30' E 010°36'6 6.0 240 / 391024.5 7.2 5.3 7.0
2020-Jan-20 23:00N 58°24' E 010°36'0 0.0 240 / 351025.5 7.0 4.9 6.9
2020-Jan-20 22:00N 58°24' E 010°36'6 5.8 240 / 351026.0 7.2 5.1 7.0
2020-Jan-20 21:00N 58°30' E 010°39'6527.0
2020-Jan-20 21:00N 58°24' E 010°36'0 0.0 250 / 311026.5 7.9 5.1 6.9
2020-Jan-20 20:00N 58°24' E 010°36'7 6.8 250 / 331027.5 7.9 5.0 6.9
2020-Jan-20 19:00N 58°30' E 010°30'817.0 250 / 351027.2 7.9 5.0 6.7
2020-Jan-20 18:30N 58°38' E 010°27'3 5.5
2020-Jan-20 18:00N 58°36' E 010°24'6 5.8 240 / 291027.5 7.7 5.3 6.9
2020-Jan-20 17:00N 58°41' E 010°28'6346.6
2020-Jan-20 17:00N 58°36' E 010°24'0 0.0 240 / 291028.2 7.5 5.4 6.8
2020-Jan-20 16:00N 58°36' E 010°24'4 4.3 240 / 331028.7 8.5 6.3 6.8
2020-Jan-20 15:00N 58°38' E 010°17'4441.7
2020-Jan-20 15:00N 58°36' E 010°12'3 3.1 240 / 331029.2 7.5 4.9 7.0
2020-Jan-20 14:00N 58°36' E 010°18'0 0.7 250 / 291029.0 7.5 4.6 7.0
2020-Jan-20 13:30N 58°36' E 010°17'3 5.5
2020-Jan-20 13:00N 58°36' E 010°12'4 4.1 260 / 331029.8 7.7 4.3 6.9
2020-Jan-20 12:00N 58°37' E 010°19'1336.4
2020-Jan-20 12:00N 58°36' E 010°18'1010.0 240 / 231030.0 7.7 4.1 6.8
2020-Jan-20 11:00N 58°45' E 010°25'3611.0
2020-Jan-20 11:00N 58°42' E 010°24'6 6.0 240 / 311030.2 7.4 3.7 6.4
2020-Jan-20 10:00N 58°48' E 010°24'816.6 230 / 251030.5 7.0 2.9 5.8
2020-Jan-20 09:30N 58°55' E 010°30'2 3.3
2020-Jan-20 09:00N 58°54' E 010°28'2175.6
2020-Jan-20 09:00N 58°54' E 010°24'7 6.8 230 / 251030.9 9.3 4.5 5.7
2020-Jan-20 08:00N 58°48' E 010°18'3 3.4 230 / 231031.4 7.0 3.1 5.9
2020-Jan-20 07:00N 58°51' E 010°19'3572.7
2020-Jan-20 07:00N 58°48' E 010°18'2 1.8 240 / 231031.4 9.0 3.8 5.8
2020-Jan-20 06:00N 58°50' E 010°19'2106.0
2020-Jan-20 06:00N 58°48' E 010°18'1 2.8 250 / 251031.2 7.2 2.8 6.6
2020-Jan-20 05:30N 58°48' E 010°21'1 2.8
2020-Jan-20 05:00N 58°47' E 010°20'5306.2
2020-Jan-20 05:00N 58°42' E 010°18'3 3.1 250 / 291031.5 7.4 2.3 6.9
2020-Jan-20 04:00N 58°42' E 010°12'2 4.3 250 / 311032.2 7.4 2.7 6.9
2020-Jan-20 03:29N 58°44' E 010°13'2 4.3
2020-Jan-20 03:00N 58°42' E 010°12'713.1 240 / 271032.9 6.9 2.5 7.0
2020-Jan-20 02:30N 58°48' E 010°10'5 9.8
2020-Jan-20 02:00N 58°48' E 010°00'4 9.2 240 / 191033.7 7.3 1.6 5.7
2020-Jan-20 01:30N 58°52' E 010°03'2 3.1
2020-Jan-20 01:00N 58°51' E 010°01'3188.9
2020-Jan-20 01:00N 58°48' E 010°00'6 6.2 250 / 161033.9 6.7 2.3 5.7
2020-Jan-20 00:00N 58°48' E 009°48'612.3 250 / 141034.4 5.4-0.6 5.7
2020-Jan-19 23:30N 58°54' E 009°49'1 1.5
2020-Jan-19 23:00N 58°54' E 009°48'3 3.1 260 / 101034.2 4.7-1.6 5.7
2020-Jan-19 22:00N 58°54' E 009°42'4 3.8 240 / 121034.2 5.0-1.6 5.7
2020-Jan-19 21:00N 58°52' E 009°48'5360.3
2020-Jan-19 21:00N 58°48' E 009°42'3 3.1 260 / 121034.7 5.2-2.3 5.9
2020-Jan-19 20:00N 58°48' E 009°48'1 1.4 270 / 121034.7 5.2-2.6 5.5
2020-Jan-19 19:00N 58°49' E 009°46'2972.6
2020-Jan-19 19:00N 58°48' E 009°42'2 4.8 260 / 141034.0 5.5-2.8 5.9
2020-Jan-19 18:30N 58°48' E 009°46'612.4
2020-Jan-19 18:00N 58°42' E 009°42'0 0.0 290 / 61033.7 6.0-3.6 5.8
2020-Jan-19 17:00N 58°42' E 009°42'1 1.1 280 / 81033.3 6.2-4.6 6.6
2020-Jan-19 16:30N 58°43' E 009°42'714.5
2020-Jan-19 16:00N 58°36' E 009°36'3 3.1 290 / 81033.0 6.4-5.7 6.5
2020-Jan-19 15:00N 58°36' E 009°30'6 6.3 300 / 61032.4 6.3-6.0 6.0
2020-Jan-19 14:00N 58°36' E 009°18'2 1.6 320 / 61031.7 6.4-8.6 6.1
2020-Jan-19 13:00N 58°37' E 009°21'2301.8
2020-Jan-19 13:00N 58°36' E 009°18'7 6.8 310 / 81031.0 6.5-8.0 6.1
2020-Jan-19 12:00N 58°30' E 009°12'2 2.0 310 / 81030.3 6.5-9.6 6.2
2020-Jan-19 11:00N 58°32' E 009°12'2888.4
2020-Jan-19 11:00N 58°30' E 009°12'4 7.2 300 / 101029.7 6.2-8.5 6.4
2020-Jan-19 10:30N 58°29' E 009°05'1 2.5
2020-Jan-19 10:00N 58°28' E 009°04'5873.1
2020-Jan-19 10:00N 58°24' E 009°00'3 3.1 300 / 101029.4 5.9-6.2 6.8
2020-Jan-19 09:00N 58°24' E 009°06'3 6.7 320 / 141027.7 6.2-6.7 6.5
2020-Jan-19 08:30N 58°27' E 009°10'3 6.3
2020-Jan-19 08:00N 58°24' E 009°06'0 0.0 320 / 121026.7 6.0-4.3 6.3
2020-Jan-19 07:00N 58°24' E 009°06'5 9.7 310 / 121025.2 6.4-3.4 6.6
2020-Jan-19 06:30N 58°27' E 009°13'4 7.1
2020-Jan-19 06:00N 58°24' E 009°18'7 6.8 290 / 171022.8 7.0-1.4 6.7
2020-Jan-19 05:00N 58°18' E 009°24'3 5.4 290 / 161021.5 7.0-0.3 6.9
2020-Jan-19 04:30N 58°21' E 009°23'4 7.5
2020-Jan-19 04:00N 58°18' E 009°18'3 6.1 280 / 191020.2 6.9-0.9 6.9
2020-Jan-19 03:30N 58°21' E 009°16'917.0
2020-Jan-19 03:00N 58°18' E 009°00'3 3.2 280 / 141019.7 7.2-1.1 6.5
2020-Jan-19 02:00N 58°18' E 008°54'1 1.4 260 / 141018.5 6.7-0.8 6.8
2020-Jan-19 01:00N 58°19' E 008°55'184.2
2020-Jan-19 01:00N 58°18' E 008°54'1 1.3 260 / 171017.7 6.0 0.1 6.8
2020-Jan-19 00:30N 58°18' E 008°53'816.2
2020-Jan-19 00:00N 58°12' E 008°42'7 6.8 250 / 171016.3 5.7-0.0 6.8
2020-Jan-18 23:00N 58°18' E 008°48'5 4.6 260 / 161015.2 5.4 0.4 6.7
2020-Jan-18 22:00N 58°14' E 008°46'3262.4
2020-Jan-18 22:00N 58°12' E 008°42'3 5.5 270 / 171014.5 5.8 0.9 6.5
2020-Jan-18 21:30N 58°09' E 008°43'1019.4
2020-Jan-18 21:00N 58°00' E 008°36'1 2.6 280 / 211013.8 6.2 1.5 6.6
2020-Jan-18 20:30N 58°00' E 008°38'612.4
2020-Jan-18 20:00N 57°54' E 008°36'3 6.2 280 / 211013.3 6.4 1.7 6.8
2020-Jan-18 19:30N 57°57' E 008°34'4 7.0
2020-Jan-18 19:00N 57°54' E 008°30'3 3.2 280 / 231012.6 6.5 1.8 6.7
2020-Jan-18 18:00N 57°53' E 008°25'5288.3
2020-Jan-18 18:00N 57°48' E 008°24'4 8.1 280 / 251011.7 6.7 2.0 6.8
2020-Jan-18 17:30N 57°49' E 008°17'918.4
2020-Jan-18 17:00N 57°42' E 008°06'3 7.1 290 / 251011.2 6.7 1.9 6.7
2020-Jan-18 16:30N 57°44' E 008°02'3 5.1
2020-Jan-18 16:00N 57°42' E 008°00'511.1 290 / 291010.4 6.7 2.6 7.0
2020-Jan-18 15:30N 57°47' E 008°03'510.5
2020-Jan-18 15:00N 57°52' E 008°08'4246.0
2020-Jan-18 15:00N 57°48' E 008°06'1413.6 280 / 291008.1 7.0 2.7 6.6
2020-Jan-18 14:00N 58°00' E 008°18'3 5.2 270 / 231006.5 7.4 3.1 6.8
2020-Jan-18 13:30N 58°02' E 008°21'3 4.9
2020-Jan-18 13:00N 58°00' E 008°18'3 3.2 270 / 231006.2 7.0 2.9 6.9
2020-Jan-18 12:00N 58°00' E 008°12'0 0.0 270 / 251006.3 6.7 3.0 6.8
2020-Jan-18 11:00N 58°00' E 008°12'2 4.9 270 / 171004.8 6.2 2.6 6.9
2020-Jan-18 10:30N 58°02' E 008°15'1 1.7
2020-Jan-18 10:00N 58°02' E 008°13'2140.3
2020-Jan-18 10:00N 58°00' E 008°12'1111.3 270 / 171004.5 6.0 2.8 6.8
2020-Jan-18 09:00N 58°06' E 007°54'0 0.0 280 / 101003.7 5.5 1.6 7.8
2020-Jan-18 08:00N 58°06' E 007°54'0 0.0 270 / 101002.7 5.4 1.7 7.9
2020-Jan-18 07:00N 58°06' E 007°54'612.3 270 / 101001.6 6.0 3.6 6.2
2020-Jan-18 06:30N 58°04' E 008°05'5 9.8
2020-Jan-18 06:00N 58°00' E 007°58'2194.0
2020-Jan-18 06:00N 58°00' E 007°54'9 8.7 280 / 141001.7 6.4 4.0 7.1
2020-Jan-18 05:00N 57°54' E 007°42'4 3.6 270 / 161001.8 8.4 5.0 7.4
2020-Jan-18 04:00N 57°56' E 007°37'31148.2
2020-Jan-18 04:00N 57°54' E 007°36'7 6.8 230 / 191002.2 6.4 4.5 7.4
2020-Jan-18 03:00N 57°48' E 007°42'4 4.3 220 / 161002.7 7.4 5.4 7.4
2020-Jan-18 02:00N 57°52' E 007°41'5381.5
2020-Jan-18 02:00N 57°48' E 007°36'5 5.0 220 / 171002.8 7.5 5.4 7.3
2020-Jan-18 01:00N 57°53' E 007°39'5327.0
2020-Jan-18 01:00N 57°48' E 007°36'8 8.5 220 / 161002.8 7.7 6.0 7.2
2020-Jan-18 00:00N 57°54' E 007°26'165.7
2020-Jan-18 00:00N 57°54' E 007°24'7 6.8 180 / 161003.0 7.5 5.9 7.2
2020-Jan-17 23:00N 57°48' E 007°18'3 3.2 180 / 161003.5 7.7 6.1 7.9
2020-Jan-17 22:00N 57°48' E 007°24'3 3.2 190 / 141004.1 7.5 5.9 7.1
2020-Jan-17 21:00N 57°48' E 007°18'7 6.7 180 / 141004.5 7.4 5.8 7.5
2020-Jan-17 20:00N 57°43' E 007°26'1348.6
2020-Jan-17 20:00N 57°42' E 007°24'6 6.0 180 / 141005.1 7.4 6.1 7.0
2020-Jan-17 19:00N 57°36' E 007°24'611.7 170 / 101005.3 7.2 5.9 7.2
2020-Jan-17 18:29N 57°40' E 007°32'4 8.3
2020-Jan-17 18:00N 57°36' E 007°30'3 6.7 200 / 61005.7 7.5 6.0 7.1
2020-Jan-17 17:30N 57°36' E 007°36'714.0
2020-Jan-17 17:00N 57°30' E 007°30'510.4 220 / 81006.0 7.5 6.0 7.3
2020-Jan-17 16:30N 57°35' E 007°31'510.0
2020-Jan-17 16:00N 57°30' E 007°30'1 1.4 220 / 101006.1 7.5 5.9 7.3
2020-Jan-17 15:00N 57°31' E 007°28'3261.1
2020-Jan-17 15:00N 57°30' E 007°24'6 6.0 220 / 101006.2 7.6 6.0 7.4
2020-Jan-17 14:00N 57°24' E 007°24'10 4.8 230 / 101006.2 7.7 6.2 7.7
2020-Jan-17 12:00N 57°24' E 007°06'4 7.8 200 / 161007.1 7.9 6.2 7.6
2020-Jan-17 11:30N 57°28' E 007°08'4 7.7
2020-Jan-17 11:00N 57°24' E 007°06'9 8.8 200 / 171007.3 8.0 6.3 7.5
2020-Jan-17 10:00N 57°30' E 006°54'0 0.0 200 / 161007.4 8.1 6.4 7.6
2020-Jan-17 09:00N 57°30' E 006°54'815.5 200 / 191007.0 8.0 6.2 7.5
2020-Jan-17 08:30N 57°37' E 006°51'2 4.1
2020-Jan-17 08:00N 57°36' E 006°48'4 3.8 190 / 211007.5 8.2 6.2 7.6
2020-Jan-17 07:00N 57°39' E 006°44'3207.7
2020-Jan-17 07:00N 57°36' E 006°42'0 0.0 200 / 231006.6 8.4 6.3 7.7
2020-Jan-17 06:00N 57°36' E 006°42'3 3.5 200 / 231006.7 8.3 6.1 7.6
2020-Jan-17 05:00N 57°39' E 006°45'3273.5
2020-Jan-17 05:00N 57°36' E 006°42'3 7.0 200 / 271006.8 8.3 5.9 7.6
2020-Jan-17 04:30N 57°39' E 006°45'0 0.6
2020-Jan-17 04:00N 57°39' E 006°46'3746.4
2020-Jan-17 04:00N 57°36' E 006°42'0 0.0 200 / 291007.2 8.8 5.9 7.7
2020-Jan-17 03:00N 57°36' E 006°42'3 6.8 200 / 311007.6 8.9 5.8 7.6
2020-Jan-17 02:30N 57°39' E 006°46'3 6.8
2020-Jan-17 02:00N 57°36' E 006°42'0 0.0 190 / 331008.0 9.0 5.8 7.6
2020-Jan-17 01:00N 57°36' E 006°42'4 7.3 180 / 331008.2 8.7 5.6 7.6
2020-Jan-17 00:29N 57°39' E 006°45'4 7.3
2020-Jan-17 00:00N 57°36' E 006°42'0 0.0 180 / 351008.7 8.2 5.5 7.6
2020-Jan-16 23:00N 57°36' E 006°42'0 0.0 170 / 351009.7 8.0 5.2 7.6
2020-Jan-16 22:00N 57°36' E 006°42'0 0.0 160 / 331011.2 7.7 4.7 7.6
2020-Jan-16 21:00N 57°36' E 006°42'7 6.8 160 / 351011.5 7.7 4.4 7.7
2020-Jan-16 20:00N 57°42' E 006°36'7 6.8 170 / 271012.6 7.9 4.6 7.9
2020-Jan-16 19:00N 57°48' E 006°30'7 6.8 170 / 291013.2 7.8 5.0 7.6
2020-Jan-16 18:00N 57°54' E 006°24'3 5.5 180 / 251013.8 7.8 4.9 7.4
2020-Jan-16 17:30N 57°57' E 006°24'1 2.8
2020-Jan-16 17:00N 57°58' E 006°22'4603.9
2020-Jan-16 17:00N 57°54' E 006°18'0 0.0 190 / 211014.2 7.5 4.9 7.5
2020-Jan-16 16:00N 57°54' E 006°18'10 9.6 190 / 191014.7 7.7 5.0 7.4
2020-Jan-16 15:00N 57°54' E 006°00'1313.3 190 / 211014.2 7.6 4.7 7.4
2020-Jan-16 14:00N 58°04' E 005°45'5631.2
2020-Jan-16 14:00N 58°00' E 005°42'1111.1 200 / 211014.2 7.7 4.7 7.3
2020-Jan-16 13:00N 58°09' E 005°29'42570.8
2020-Jan-16 13:00N 58°06' E 005°24'510.4 200 / 211014.4 8.0 4.6 7.7
2020-Jan-16 12:30N 58°11' E 005°22'5 9.9
2020-Jan-16 12:00N 58°14' E 005°14'2458.3
2020-Jan-16 12:00N 58°12' E 005°12'7 6.9 210 / 211013.8 8.1 4.5 7.9
2020-Jan-16 11:00N 58°19' E 005°09'2109.8
2020-Jan-16 11:00N 58°18' E 005°06'0 0.0 230 / 211012.6 8.1 4.0 7.9
2020-Jan-16 10:00N 58°18' E 005°06'919.0 240 / 231012.1 8.0 2.9 7.5
2020-Jan-16 09:30N 58°27' E 005°09'3 6.1
2020-Jan-16 09:00N 58°30' E 005°06'5 9.2 240 / 291010.8 8.0 3.3 8.1
2020-Jan-16 08:30N 58°34' E 005°11'3 6.8
2020-Jan-16 08:00N 58°36' E 005°06'3 3.1 240 / 291009.5 8.0 3.5 8.0
2020-Jan-16 07:00N 58°36' E 005°12'6 6.0 240 / 311007.9 8.1 3.6 7.9
2020-Jan-16 06:00N 58°42' E 005°12'7 6.8 250 / 271006.6 8.2 3.6 7.7
2020-Jan-16 05:00N 58°48' E 005°18'4 8.8 250 / 271005.5 8.4 3.7 7.7
2020-Jan-16 04:30N 58°50' E 005°26'3 6.8
2020-Jan-16 04:00N 58°52' E 005°31'4270.0
2020-Jan-16 04:00N 58°48' E 005°30'1313.0 240 / 251004.0 8.4 4.1 7.5
2020-Jan-16 03:00N 59°01' E 005°33'2110.0
2020-Jan-16 03:00N 59°00' E 005°30'4 8.8 240 / 251002.1 8.5 4.5 7.7
2020-Jan-16 02:30N 59°02' E 005°38'815.7
2020-Jan-16 02:00N 58°54' E 005°42'4 9.0 220 / 81001.2 8.3 4.1 8.0
2020-Jan-16 01:30N 58°58' E 005°44'4 8.9
2020-Jan-16 01:00N 58°54' E 005°42'0 0.0 210 / 12999.7 8.1 3.8 8.1
2020-Jan-16 00:00N 58°54' E 005°42'4 8.2 210 / 8998.3 7.3 4.1 8.1
2020-Jan-15 23:27N 58°58' E 005°44'410.0
2020-Jan-15 23:00N 58°54' E 005°42'4 9.0 210 / 12997.6 7.5 3.9 8.2
2020-Jan-15 22:30N 58°58' E 005°44'4 9.0
2020-Jan-15 22:00N 58°54' E 005°42'0 0.0 190 / 12996.3 7.9 2.9 8.0
2020-Jan-15 21:00N 58°54' E 005°42'0 0.0 190 / 14995.4 8.2 2.7 8.1
2020-Jan-15 20:00N 58°54' E 005°42'44034.8 190 / 12994.7 7.4 3.2 8.1
2020-Jan-15 19:59N 58°58' E 005°44'0 0.0
2020-Jan-15 19:29N 58°58' E 005°44'4 9.0
2020-Jan-15 19:00N 58°54' E 005°42'0 0.0 180 / 12994.0 7.5 3.0 8.1
2020-Jan-15 18:00N 58°54' E 005°42'42302.8 190 / 12993.6 7.7 2.4 8.1
2020-Jan-15 17:59N 58°58' E 005°44'4 4.5
2020-Jan-15 17:00N 58°54' E 005°42'0 0.0 180 / 12992.9 7.7 2.4 8.0
2020-Jan-15 16:00N 58°54' E 005°42'0 0.0 180 / 12992.5 7.6 2.0 8.0
2020-Jan-15 15:00N 58°54' E 005°42'0 0.0 180 / 12992.5 7.7 1.9 8.0
2020-Jan-15 14:00N 58°54' E 005°42'41241.6 180 / 14991.7 7.7 1.7 7.9
2020-Jan-15 13:59N 58°58' E 005°44'4 4.5
2020-Jan-15 13:00N 58°54' E 005°42'4 8.9 190 / 14991.4 7.7 1.6 8.0
2020-Jan-15 12:29N 58°58' E 005°44'4 9.1
2020-Jan-15 12:00N 58°54' E 005°42'4 8.9 190 / 12991.1 8.0 1.4 8.0
2020-Jan-15 11:29N 58°58' E 005°44'4 9.1
2020-Jan-15 11:00N 58°54' E 005°42'0 0.0 190 / 12990.6 7.7 1.4 8.0
2020-Jan-15 10:00N 58°54' E 005°42'4 9.1 200 / 12990.1 7.7 1.1 8.0
2020-Jan-15 09:30N 58°58' E 005°44'4 8.4
2020-Jan-15 09:00N 59°00' E 005°36'612.6 220 / 25988.4 7.5 1.4 7.7
2020-Jan-15 08:30N 59°06' E 005°31'1 1.5
2020-Jan-15 08:00N 59°06' E 005°30'9 8.6 220 / 33987.2 7.6 0.5 7.3
2020-Jan-15 07:00N 59°12' E 005°42'7 6.7 220 / 31986.1 7.4 1.0 6.5
2020-Jan-15 06:00N 59°18' E 005°48'1 0.9 230 / 29985.7 7.5 1.2 6.7
2020-Jan-15 05:00N 59°18' E 005°50'67255.3
2020-Jan-15 05:00N 59°12' E 005°48'   240 / 23985.2 7.5 1.6 7.0
Track history (hours):
 
Tides and Currents Weather Stations Pressure Air Temp Water Temp Dewpoint Dewpoint Depression Visibility Wind Speed Wind Dir Waves Ship Positions

Oceanographic research ship Kristine Bonnevie (Norway)

Detailed information on ship capabilities available from University of Delaware's Ocean Information Center.

Last reported at 2020-Jan-25 05:00 UTC. Time now 2020-Jan-25 06:09 UTC.
Position N 57°36' E 006°36'.

Length 56.7 m; beam 12.5 m.

Type: Fishing. MMSI: 258523000.

Wind from 260 at 19 knots

Barometer 1012.2 mb
Air temperature 6.7 ° C
Dewpoint 3.7 ° C
Water temperature 6.7 ° C

Date/timePositionNaut miles runAvg speedWind from/ knotsBaromVisibWave heightAir tempDewpointWater temp
2020-Jan-25 05:00N 57°36' E 006°36'10 9.6 260 / 191012.2 6.7 3.7 6.7
2020-Jan-25 04:00N 57°36' E 006°54'815.7 270 / 191012.1 6.6 3.7 6.9
2020-Jan-25 03:30N 57°40' E 007°06'510.3
2020-Jan-25 03:00N 57°36' E 007°12'3 3.2 280 / 211012.2 6.7 3.5 6.7
2020-Jan-25 02:00N 57°36' E 007°18'8 8.0 270 / 191012.5 6.7 3.5 6.6
2020-Jan-25 01:00N 57°41' E 007°29'6411.4
2020-Jan-25 01:00N 57°36' E 007°24'817.1 280 / 251012.5 6.7 2.8 6.8
2020-Jan-25 00:31N 57°41' E 007°36'612.1
2020-Jan-25 00:00N 57°36' E 007°42'9 8.8 280 / 251012.7 6.7 2.8 6.7
2020-Jan-24 23:00N 57°42' E 007°54'1289.4 280 / 251012.2 6.7 2.4 6.3
2020-Jan-24 22:59N 57°43' E 007°55'3 2.8
2020-Jan-24 22:00N 57°42' E 008°00'7 6.8 280 / 251011.8 6.7 2.4 6.3
2020-Jan-24 21:00N 57°36' E 007°54'1 1.1 270 / 211012.2 6.7 3.0 6.3
2020-Jan-24 20:30N 57°36' E 007°55'2 3.2
2020-Jan-24 20:00N 57°36' E 007°58'2247.3
2020-Jan-24 20:00N 57°36' E 007°54'3 6.3 280 / 231012.1 6.7 2.5 6.3
2020-Jan-24 19:30N 57°37' E 007°59'814.6
2020-Jan-24 19:00N 57°30' E 007°54'7 6.8 280 / 211012.2 6.9 2.9 6.7
2020-Jan-24 18:00N 57°24' E 008°00'7 6.8 290 / 231012.2 7.0 2.8 6.8
2020-Jan-24 17:00N 57°30' E 008°06'1312.8 270 / 231011.6 7.0 3.5 7.0
2020-Jan-24 16:00N 57°35' E 008°28'3 3.2
2020-Jan-24 15:00N 57°36' E 008°33'2318.3
2020-Jan-24 15:00N 57°36' E 008°30'3 2.7 270 / 271011.1 7.0 3.7 6.8
2020-Jan-24 14:00N 57°39' E 008°29'4457.9
2020-Jan-24 14:00N 57°36' E 008°24'3 3.2 270 / 291011.1 7.2 3.9 6.5
2020-Jan-24 13:00N 57°36' E 008°30'8 7.8 270 / 251011.3 7.4 4.2 6.4
2020-Jan-24 12:00N 57°43' E 008°25'2135.1
2020-Jan-24 12:00N 57°42' E 008°24'4 3.7 260 / 271011.2 7.2 4.5 6.5
2020-Jan-24 11:00N 57°44' E 008°29'4319.2
2020-Jan-24 11:00N 57°42' E 008°24'714.6 260 / 271011.3 7.0 4.6 6.5
2020-Jan-24 10:30N 57°44' E 008°37'5 9.5
2020-Jan-24 10:00N 57°44' E 008°46'3300.5
2020-Jan-24 10:00N 57°42' E 008°42'6 6.4 260 / 291010.7 7.0 4.6 6.5
2020-Jan-24 09:00N 57°42' E 008°54'6 6.0 260 / 251011.7 6.8 4.9 6.6
2020-Jan-24 08:00N 57°48' E 008°54'4 8.0 250 / 291010.9 7.0 5.4 6.6
2020-Jan-24 07:30N 57°49' E 009°01'1 1.7
2020-Jan-24 07:00N 57°49' E 009°03'2275.4
2020-Jan-24 07:00N 57°48' E 009°00'0 0.0 250 / 251011.2 7.1 5.4 6.6
2020-Jan-24 06:00N 57°48' E 009°00'3 3.2 240 / 291011.3 7.1 5.4 6.5
2020-Jan-24 05:00N 57°48' E 009°06'3 3.2 240 / 271011.6 7.0 5.3 6.4
2020-Jan-24 04:00N 57°48' E 009°00'714.2 250 / 271012.2 7.0 5.1 6.4
2020-Jan-24 03:31N 57°54' E 009°05'1 1.5
2020-Jan-24 03:00N 57°54' E 009°06'2 3.1 250 / 291012.0 7.0 5.3 6.4
2020-Jan-24 02:30N 57°55' E 009°04'2 4.1
2020-Jan-24 02:00N 57°54' E 009°00'0 0.0 250 / 291013.0 6.7 5.2 6.3
2020-Jan-24 01:00N 57°54' E 009°00'3 6.1 250 / 291013.5 6.8 5.3 6.4
2020-Jan-24 00:30N 57°55' E 009°05'0 0.5
2020-Jan-23 23:30N 57°55' E 009°06'1 2.2
2020-Jan-23 23:00N 57°54' E 009°06'3 2.9 250 / 311015.5 6.8 4.9 6.3
2020-Jan-23 22:00N 57°55' E 009°11'31058.6
2020-Jan-23 22:00N 57°54' E 009°06'3 3.2 260 / 311016.2 7.2 5.1 6.3
2020-Jan-23 21:00N 57°54' E 009°12'3 1.6 260 / 291016.0 7.2 5.1 6.4
2020-Jan-23 19:00N 57°54' E 009°18'7 6.8 260 / 251016.9 7.1 5.5 6.4
2020-Jan-23 18:00N 57°48' E 009°24'9 8.8 260 / 291016.7 7.0 5.4 6.7
2020-Jan-23 17:00N 57°42' E 009°36'4 7.2 260 / 291017.6 6.9 5.5 6.9
2020-Jan-23 16:29N 57°44' E 009°42'815.7
2020-Jan-23 16:00N 57°36' E 009°42'8 9.3 260 / 291018.2 7.5 5.9 7.2
2020-Jan-23 15:08N 57°37' E 009°57'749.8
2020-Jan-23 15:00N 57°30' E 009°54'0 0.0 250 / 231019.2 7.7 6.0 5.8
2020-Jan-23 14:00N 57°30' E 009°54'0 0.0 250 / 231019.8 7.7 6.2 5.8
2020-Jan-23 13:00N 57°30' E 009°54'0 0.0 250 / 191020.7 7.5 6.2 5.8
2020-Jan-23 12:00N 57°30' E 009°54'0 0.0 250 / 211021.6 7.2 5.9 5.8
2020-Jan-23 11:00N 57°30' E 009°54'6 6.0 250 / 211022.5 7.0 5.7 5.7
2020-Jan-23 10:00N 57°36' E 009°54'334.0 250 / 271022.8 7.0 5.5 6.3
2020-Jan-23 09:55N 57°39' E 009°53'1010.8
2020-Jan-23 09:00N 57°42' E 009°36'1413.6 240 / 271022.8 6.9 5.3 7.2
2020-Jan-23 08:00N 57°54' E 009°24'3 3.2 260 / 271023.3 6.5 5.0 6.5
2020-Jan-23 07:00N 57°54' E 009°30'0 0.0 260 / 271023.5 6.5 4.6 6.7
2020-Jan-23 06:00N 57°54' E 009°30'58275.5 260 / 291024.1 6.2 4.2 6.7
2020-Jan-23 05:59N 57°58' E 009°33'1 2.8
2020-Jan-23 05:30N 57°59' E 009°35'1 2.4
2020-Jan-23 05:00N 58°00' E 009°36'3 3.2 270 / 271024.4 6.4 3.2 6.7
2020-Jan-23 04:00N 58°00' E 009°30'3 3.2 270 / 291024.7 6.4 2.1 6.7
2020-Jan-23 03:00N 58°00' E 009°36'9 8.7 250 / 251025.2 6.2 0.4 6.8
2020-Jan-23 02:00N 58°06' E 009°48'3 3.2 250 / 161026.4 5.7-0.1 6.9
2020-Jan-23 01:00N 58°06' E 009°54'7 6.8 240 / 161027.1 6.1 0.5 6.9
2020-Jan-23 00:00N 58°00' E 010°00'6 6.0 200 / 141027.9 6.5 1.7 6.8
2020-Jan-22 23:00N 58°06' E 010°00'1212.4 210 / 101028.2 6.5-0.3 6.9
2020-Jan-22 22:00N 58°18' E 009°54'0 0.0 220 / 121028.4 6.5 0.2 7.0
2020-Jan-22 21:00N 58°18' E 009°54'3 3.2 230 / 101029.0 6.5-0.7 6.9
2020-Jan-22 20:00N 58°18' E 009°48'10 9.7 260 / 101029.0 6.5-1.2 7.0
2020-Jan-22 19:00N 58°14' E 010°05'41653.7
2020-Jan-22 19:00N 58°12' E 010°00'1111.2 260 / 81029.4 6.5 0.6 7.1
2020-Jan-22 18:00N 58°06' E 010°18'3 3.2 270 / 21029.0 6.0-0.1 7.0
2020-Jan-22 17:00N 58°06' E 010°12'6 6.3 040 / 21028.7 6.2-0.5 7.1
2020-Jan-22 16:00N 58°06' E 010°24'4 3.6 040 / 61028.5 6.3-0.6 7.0
2020-Jan-22 15:00N 58°05' E 010°30'5318.7
2020-Jan-22 15:00N 58°00' E 010°30'3 3.2 330 / 101028.2 6.9-0.0 7.0
2020-Jan-22 14:00N 58°00' E 010°36'5 5.5 340 / 121028.2 7.4 0.1 7.1
2020-Jan-22 13:00N 58°00' E 010°46'2145.1
2020-Jan-22 13:00N 58°00' E 010°42'6 6.4 340 / 141028.2 7.5 0.8 7.1
2020-Jan-22 12:00N 58°00' E 010°54'2 1.7 330 / 161027.5 7.5 0.7 7.3
2020-Jan-22 11:00N 58°01' E 010°56'2159.5
2020-Jan-22 11:00N 58°00' E 010°54'3 3.2 320 / 121027.5 8.4 2.0 7.2
2020-Jan-22 10:00N 58°00' E 010°48'1010.3 320 / 191026.5 9.1 0.9 7.1
2020-Jan-22 09:00N 58°09' E 010°40'4256.8
2020-Jan-22 09:00N 58°06' E 010°36'4 9.2 300 / 161026.0 7.6 2.3 7.0
2020-Jan-22 08:30N 58°10' E 010°38'4 8.7
2020-Jan-22 08:00N 58°06' E 010°36'6 6.0 300 / 191025.0 7.4 2.4 7.1
2020-Jan-22 07:00N 58°12' E 010°36'3 3.2 290 / 231023.7 7.4 2.4 6.9
2020-Jan-22 06:00N 58°12' E 010°42'0 0.0 280 / 251023.1 7.4 2.6 7.1
2020-Jan-22 05:00N 58°12' E 010°42'2 2.5 280 / 291022.4 7.3 2.6 7.0
2020-Jan-22 04:00N 58°12' E 010°37'0 0.2
2020-Jan-22 03:30N 58°12' E 010°37'2 0.5
2020-Jan-22 00:00N 58°12' E 010°41'8 2.3
2020-Jan-21 20:30N 58°20' E 010°36'8 5.3
2020-Jan-21 19:00N 58°12' E 010°36'9 1.7 270 / 311022.2 7.2 1.1 7.0
2020-Jan-21 14:00N 58°18' E 010°24'3 2.8 280 / 231023.0 9.1 2.9 7.0
2020-Jan-21 13:00N 58°21' E 010°24'4 4.1
2020-Jan-21 12:00N 58°18' E 010°18'816.5 260 / 291022.9 8.6 4.1 7.0
2020-Jan-21 11:30N 58°25' E 010°27'6 5.5
2020-Jan-21 10:30N 58°30' E 010°30'6 4.0
2020-Jan-21 09:00N 58°24' E 010°30'7 6.8 240 / 311022.1 8.5 5.4 7.0
2020-Jan-21 08:00N 58°30' E 010°36'1 2.8 240 / 271022.2 8.4 5.8 6.9
2020-Jan-21 07:30N 58°31' E 010°38'1 2.2
2020-Jan-21 07:00N 58°30' E 010°36'1 0.2
2020-Jan-21 04:00N 58°30' E 010°37'186.3
2020-Jan-21 04:00N 58°30' E 010°36'1 1.4 240 / 331023.0 7.5 5.4 6.9
2020-Jan-21 03:30N 58°30' E 010°37'0 0.3
2020-Jan-21 03:00N 58°30' E 010°38'1104.6
2020-Jan-21 03:00N 58°30' E 010°36'0 0.0 240 / 371022.8 7.9 5.5 6.9
2020-Jan-21 02:00N 58°30' E 010°36'1 2.1 240 / 351023.2 7.7 5.5 7.0
2020-Jan-21 01:30N 58°30' E 010°38'0 0.2
2020-Jan-21 01:00N 58°30' E 010°38'6444.5
2020-Jan-21 01:00N 58°24' E 010°36'6 6.0 240 / 331024.2 7.6 5.4 7.0
2020-Jan-21 00:00N 58°30' E 010°36'6 6.0 240 / 391024.5 7.2 5.3 7.0
2020-Jan-20 23:00N 58°24' E 010°36'0 0.0 240 / 351025.5 7.0 4.9 6.9
2020-Jan-20 22:00N 58°24' E 010°36'6 5.8 240 / 351026.0 7.2 5.1 7.0
2020-Jan-20 21:00N 58°30' E 010°39'6527.0
2020-Jan-20 21:00N 58°24' E 010°36'0 0.0 250 / 311026.5 7.9 5.1 6.9
2020-Jan-20 20:00N 58°24' E 010°36'7 6.8 250 / 331027.5 7.9 5.0 6.9
2020-Jan-20 19:00N 58°30' E 010°30'817.0 250 / 351027.2 7.9 5.0 6.7
2020-Jan-20 18:30N 58°38' E 010°27'3 5.5
2020-Jan-20 18:00N 58°36' E 010°24'6 5.8 240 / 291027.5 7.7 5.3 6.9
2020-Jan-20 17:00N 58°41' E 010°28'6346.6
2020-Jan-20 17:00N 58°36' E 010°24'0 0.0 240 / 291028.2 7.5 5.4 6.8
2020-Jan-20 16:00N 58°36' E 010°24'4 4.3 240 / 331028.7 8.5 6.3 6.8
2020-Jan-20 15:00N 58°38' E 010°17'4441.7
2020-Jan-20 15:00N 58°36' E 010°12'3 3.1 240 / 331029.2 7.5 4.9 7.0
2020-Jan-20 14:00N 58°36' E 010°18'0 0.7 250 / 291029.0 7.5 4.6 7.0
2020-Jan-20 13:30N 58°36' E 010°17'3 5.5
2020-Jan-20 13:00N 58°36' E 010°12'4 4.1 260 / 331029.8 7.7 4.3 6.9
2020-Jan-20 12:00N 58°37' E 010°19'1336.4
2020-Jan-20 12:00N 58°36' E 010°18'1010.0 240 / 231030.0 7.7 4.1 6.8
2020-Jan-20 11:00N 58°45' E 010°25'3611.0
2020-Jan-20 11:00N 58°42' E 010°24'6 6.0 240 / 311030.2 7.4 3.7 6.4
2020-Jan-20 10:00N 58°48' E 010°24'816.6 230 / 251030.5 7.0 2.9 5.8
2020-Jan-20 09:30N 58°55' E 010°30'2 3.3
2020-Jan-20 09:00N 58°54' E 010°28'2175.6
2020-Jan-20 09:00N 58°54' E 010°24'7 6.8 230 / 251030.9 9.3 4.5 5.7
2020-Jan-20 08:00N 58°48' E 010°18'3 3.4 230 / 231031.4 7.0 3.1 5.9
2020-Jan-20 07:00N 58°51' E 010°19'3572.7
2020-Jan-20 07:00N 58°48' E 010°18'2 1.8 240 / 231031.4 9.0 3.8 5.8
2020-Jan-20 06:00N 58°50' E 010°19'2106.0
2020-Jan-20 06:00N 58°48' E 010°18'1 2.8 250 / 251031.2 7.2 2.8 6.6
2020-Jan-20 05:30N 58°48' E 010°21'1 2.8
2020-Jan-20 05:00N 58°47' E 010°20'5306.2
2020-Jan-20 05:00N 58°42' E 010°18'3 3.1 250 / 291031.5 7.4 2.3 6.9
2020-Jan-20 04:00N 58°42' E 010°12'2 4.3 250 / 311032.2 7.4 2.7 6.9
2020-Jan-20 03:29N 58°44' E 010°13'2 4.3
2020-Jan-20 03:00N 58°42' E 010°12'713.1 240 / 271032.9 6.9 2.5 7.0
2020-Jan-20 02:30N 58°48' E 010°10'5 9.8
2020-Jan-20 02:00N 58°48' E 010°00'4 9.2 240 / 191033.7 7.3 1.6 5.7
2020-Jan-20 01:30N 58°52' E 010°03'2 3.1
2020-Jan-20 01:00N 58°51' E 010°01'3188.9
2020-Jan-20 01:00N 58°48' E 010°00'6 6.2 250 / 161033.9 6.7 2.3 5.7
2020-Jan-20 00:00N 58°48' E 009°48'612.3 250 / 141034.4 5.4-0.6 5.7
2020-Jan-19 23:30N 58°54' E 009°49'1 1.5
2020-Jan-19 23:00N 58°54' E 009°48'3 3.1 260 / 101034.2 4.7-1.6 5.7
2020-Jan-19 22:00N 58°54' E 009°42'4 3.8 240 / 121034.2 5.0-1.6 5.7
2020-Jan-19 21:00N 58°52' E 009°48'5360.3
2020-Jan-19 21:00N 58°48' E 009°42'3 3.1 260 / 121034.7 5.2-2.3 5.9
2020-Jan-19 20:00N 58°48' E 009°48'1 1.4 270 / 121034.7 5.2-2.6 5.5
2020-Jan-19 19:00N 58°49' E 009°46'2972.6
2020-Jan-19 19:00N 58°48' E 009°42'2 4.8 260 / 141034.0 5.5-2.8 5.9
2020-Jan-19 18:30N 58°48' E 009°46'612.4
2020-Jan-19 18:00N 58°42' E 009°42'0 0.0 290 / 61033.7 6.0-3.6 5.8
2020-Jan-19 17:00N 58°42' E 009°42'1 1.1 280 / 81033.3 6.2-4.6 6.6
2020-Jan-19 16:30N 58°43' E 009°42'714.5
2020-Jan-19 16:00N 58°36' E 009°36'3 3.1 290 / 81033.0 6.4-5.7 6.5
2020-Jan-19 15:00N 58°36' E 009°30'6 6.3 300 / 61032.4 6.3-6.0 6.0
2020-Jan-19 14:00N 58°36' E 009°18'2 1.6 320 / 61031.7 6.4-8.6 6.1
2020-Jan-19 13:00N 58°37' E 009°21'2301.8
2020-Jan-19 13:00N 58°36' E 009°18'7 6.8 310 / 81031.0 6.5-8.0 6.1
2020-Jan-19 12:00N 58°30' E 009°12'2 2.0 310 / 81030.3 6.5-9.6 6.2
2020-Jan-19 11:00N 58°32' E 009°12'2888.4
2020-Jan-19 11:00N 58°30' E 009°12'4 7.2 300 / 101029.7 6.2-8.5 6.4
2020-Jan-19 10:30N 58°29' E 009°05'1 2.5
2020-Jan-19 10:00N 58°28' E 009°04'5873.1
2020-Jan-19 10:00N 58°24' E 009°00'3 3.1 300 / 101029.4 5.9-6.2 6.8
2020-Jan-19 09:00N 58°24' E 009°06'3 6.7 320 / 141027.7 6.2-6.7 6.5
2020-Jan-19 08:30N 58°27' E 009°10'3 6.3
2020-Jan-19 08:00N 58°24' E 009°06'0 0.0 320 / 121026.7 6.0-4.3 6.3
2020-Jan-19 07:00N 58°24' E 009°06'5 9.7 310 / 121025.2 6.4-3.4 6.6
2020-Jan-19 06:30N 58°27' E 009°13'4 7.1
2020-Jan-19 06:00N 58°24' E 009°18'7 6.8 290 / 171022.8 7.0-1.4 6.7
2020-Jan-19 05:00N 58°18' E 009°24'3 5.4 290 / 161021.5 7.0-0.3 6.9
2020-Jan-19 04:30N 58°21' E 009°23'4 7.5
2020-Jan-19 04:00N 58°18' E 009°18'3 6.1 280 / 191020.2 6.9-0.9 6.9
2020-Jan-19 03:30N 58°21' E 009°16'917.0
2020-Jan-19 03:00N 58°18' E 009°00'3 3.2 280 / 141019.7 7.2-1.1 6.5
2020-Jan-19 02:00N 58°18' E 008°54'1 1.4 260 / 141018.5 6.7-0.8 6.8
2020-Jan-19 01:00N 58°19' E 008°55'184.2
2020-Jan-19 01:00N 58°18' E 008°54'1 1.3 260 / 171017.7 6.0 0.1 6.8
2020-Jan-19 00:30N 58°18' E 008°53'816.2
2020-Jan-19 00:00N 58°12' E 008°42'7 6.8 250 / 171016.3 5.7-0.0 6.8
2020-Jan-18 23:00N 58°18' E 008°48'5 4.6 260 / 161015.2 5.4 0.4 6.7
2020-Jan-18 22:00N 58°14' E 008°46'3262.4
2020-Jan-18 22:00N 58°12' E 008°42'3 5.5 270 / 171014.5 5.8 0.9 6.5
2020-Jan-18 21:30N 58°09' E 008°43'1019.4
2020-Jan-18 21:00N 58°00' E 008°36'1 2.6 280 / 211013.8 6.2 1.5 6.6
2020-Jan-18 20:30N 58°00' E 008°38'612.4
2020-Jan-18 20:00N 57°54' E 008°36'3 6.2 280 / 211013.3 6.4 1.7 6.8
2020-Jan-18 19:30N 57°57' E 008°34'4 7.0
2020-Jan-18 19:00N 57°54' E 008°30'3 3.2 280 / 231012.6 6.5 1.8 6.7
2020-Jan-18 18:00N 57°53' E 008°25'5288.3
2020-Jan-18 18:00N 57°48' E 008°24'4 8.1 280 / 251011.7 6.7 2.0 6.8
2020-Jan-18 17:30N 57°49' E 008°17'918.4
2020-Jan-18 17:00N 57°42' E 008°06'3 7.1 290 / 251011.2 6.7 1.9 6.7
2020-Jan-18 16:30N 57°44' E 008°02'3 5.1
2020-Jan-18 16:00N 57°42' E 008°00'511.1 290 / 291010.4 6.7 2.6 7.0
2020-Jan-18 15:30N 57°47' E 008°03'510.5
2020-Jan-18 15:00N 57°52' E 008°08'4246.0
2020-Jan-18 15:00N 57°48' E 008°06'1413.6 280 / 291008.1 7.0 2.7 6.6
2020-Jan-18 14:00N 58°00' E 008°18'3 5.2 270 / 231006.5 7.4 3.1 6.8
2020-Jan-18 13:30N 58°02' E 008°21'3 4.9
2020-Jan-18 13:00N 58°00' E 008°18'3 3.2 270 / 231006.2 7.0 2.9 6.9
2020-Jan-18 12:00N 58°00' E 008°12'0 0.0 270 / 251006.3 6.7 3.0 6.8
2020-Jan-18 11:00N 58°00' E 008°12'2 4.9 270 / 171004.8 6.2 2.6 6.9
2020-Jan-18 10:30N 58°02' E 008°15'1 1.7
2020-Jan-18 10:00N 58°02' E 008°13'2140.3
2020-Jan-18 10:00N 58°00' E 008°12'1111.3 270 / 171004.5 6.0 2.8 6.8
2020-Jan-18 09:00N 58°06' E 007°54'0 0.0 280 / 101003.7 5.5 1.6 7.8
2020-Jan-18 08:00N 58°06' E 007°54'0 0.0 270 / 101002.7 5.4 1.7 7.9
2020-Jan-18 07:00N 58°06' E 007°54'612.3 270 / 101001.6 6.0 3.6 6.2
2020-Jan-18 06:30N 58°04' E 008°05'5 9.8
2020-Jan-18 06:00N 58°00' E 007°58'2194.0
2020-Jan-18 06:00N 58°00' E 007°54'9 8.7 280 / 141001.7 6.4 4.0 7.1
2020-Jan-18 05:00N 57°54' E 007°42'4 3.6 270 / 161001.8 8.4 5.0 7.4
2020-Jan-18 04:00N 57°56' E 007°37'31148.2
2020-Jan-18 04:00N 57°54' E 007°36'7 6.8 230 / 191002.2 6.4 4.5 7.4
2020-Jan-18 03:00N 57°48' E 007°42'4 4.3 220 / 161002.7 7.4 5.4 7.4
2020-Jan-18 02:00N 57°52' E 007°41'5381.5
2020-Jan-18 02:00N 57°48' E 007°36'5 5.0 220 / 171002.8 7.5 5.4 7.3
2020-Jan-18 01:00N 57°53' E 007°39'5327.0
2020-Jan-18 01:00N 57°48' E 007°36'8 8.5 220 / 161002.8 7.7 6.0 7.2
2020-Jan-18 00:00N 57°54' E 007°26'165.7
2020-Jan-18 00:00N 57°54' E 007°24'7 6.8 180 / 161003.0 7.5 5.9 7.2
2020-Jan-17 23:00N 57°48' E 007°18'3 3.2 180 / 161003.5 7.7 6.1 7.9
2020-Jan-17 22:00N 57°48' E 007°24'3 3.2 190 / 141004.1 7.5 5.9 7.1
2020-Jan-17 21:00N 57°48' E 007°18'7 6.7 180 / 141004.5 7.4 5.8 7.5
2020-Jan-17 20:00N 57°43' E 007°26'1348.6
2020-Jan-17 20:00N 57°42' E 007°24'6 6.0 180 / 141005.1 7.4 6.1 7.0
2020-Jan-17 19:00N 57°36' E 007°24'611.7 170 / 101005.3 7.2 5.9 7.2
2020-Jan-17 18:29N 57°40' E 007°32'4 8.3
2020-Jan-17 18:00N 57°36' E 007°30'3 6.7 200 / 61005.7 7.5 6.0 7.1
2020-Jan-17 17:30N 57°36' E 007°36'714.0
2020-Jan-17 17:00N 57°30' E 007°30'510.4 220 / 81006.0 7.5 6.0 7.3
2020-Jan-17 16:30N 57°35' E 007°31'510.0
2020-Jan-17 16:00N 57°30' E 007°30'1 1.4 220 / 101006.1 7.5 5.9 7.3
2020-Jan-17 15:00N 57°31' E 007°28'3261.1
2020-Jan-17 15:00N 57°30' E 007°24'6 6.0 220 / 101006.2 7.6 6.0 7.4
2020-Jan-17 14:00N 57°24' E 007°24'10 4.8 230 / 101006.2 7.7 6.2 7.7
2020-Jan-17 12:00N 57°24' E 007°06'4 7.8 200 / 161007.1 7.9 6.2 7.6
2020-Jan-17 11:30N 57°28' E 007°08'4 7.7
2020-Jan-17 11:00N 57°24' E 007°06'9 8.8 200 / 171007.3 8.0 6.3 7.5
2020-Jan-17 10:00N 57°30' E 006°54'0 0.0 200 / 161007.4 8.1 6.4 7.6
2020-Jan-17 09:00N 57°30' E 006°54'815.5 200 / 191007.0 8.0 6.2 7.5
2020-Jan-17 08:30N 57°37' E 006°51'2 4.1
2020-Jan-17 08:00N 57°36' E 006°48'4 3.8 190 / 211007.5 8.2 6.2 7.6
2020-Jan-17 07:00N 57°39' E 006°44'3207.7
2020-Jan-17 07:00N 57°36' E 006°42'0 0.0 200 / 231006.6 8.4 6.3 7.7
2020-Jan-17 06:00N 57°36' E 006°42'3 3.5 200 / 231006.7 8.3 6.1 7.6
2020-Jan-17 05:00N 57°39' E 006°45'3273.5
2020-Jan-17 05:00N 57°36' E 006°42'3 7.0 200 / 271006.8 8.3 5.9 7.6
2020-Jan-17 04:30N 57°39' E 006°45'0 0.6
2020-Jan-17 04:00N 57°39' E 006°46'3746.4
2020-Jan-17 04:00N 57°36' E 006°42'0 0.0 200 / 291007.2 8.8 5.9 7.7
2020-Jan-17 03:00N 57°36' E 006°42'3 6.8 200 / 311007.6 8.9 5.8 7.6
2020-Jan-17 02:30N 57°39' E 006°46'3 6.8
2020-Jan-17 02:00N 57°36' E 006°42'0 0.0 190 / 331008.0 9.0 5.8 7.6
2020-Jan-17 01:00N 57°36' E 006°42'4 7.3 180 / 331008.2 8.7 5.6 7.6
2020-Jan-17 00:29N 57°39' E 006°45'4 7.3
2020-Jan-17 00:00N 57°36' E 006°42'0 0.0 180 / 351008.7 8.2 5.5 7.6
2020-Jan-16 23:00N 57°36' E 006°42'0 0.0 170 / 351009.7 8.0 5.2 7.6
2020-Jan-16 22:00N 57°36' E 006°42'0 0.0 160 / 331011.2 7.7 4.7 7.6
2020-Jan-16 21:00N 57°36' E 006°42'7 6.8 160 / 351011.5 7.7 4.4 7.7
2020-Jan-16 20:00N 57°42' E 006°36'7 6.8 170 / 271012.6 7.9 4.6 7.9
2020-Jan-16 19:00N 57°48' E 006°30'7 6.8 170 / 291013.2 7.8 5.0 7.6
2020-Jan-16 18:00N 57°54' E 006°24'3 5.5 180 / 251013.8 7.8 4.9 7.4
2020-Jan-16 17:30N 57°57' E 006°24'1 2.8
2020-Jan-16 17:00N 57°58' E 006°22'4603.9
2020-Jan-16 17:00N 57°54' E 006°18'0 0.0 190 / 211014.2 7.5 4.9 7.5
2020-Jan-16 16:00N 57°54' E 006°18'10 9.6 190 / 191014.7 7.7 5.0 7.4
2020-Jan-16 15:00N 57°54' E 006°00'1313.3 190 / 211014.2 7.6 4.7 7.4
2020-Jan-16 14:00N 58°04' E 005°45'5631.2
2020-Jan-16 14:00N 58°00' E 005°42'1111.1 200 / 211014.2 7.7 4.7 7.3
2020-Jan-16 13:00N 58°09' E 005°29'42570.8
2020-Jan-16 13:00N 58°06' E 005°24'510.4 200 / 211014.4 8.0 4.6 7.7
2020-Jan-16 12:30N 58°11' E 005°22'5 9.9
2020-Jan-16 12:00N 58°14' E 005°14'2458.3
2020-Jan-16 12:00N 58°12' E 005°12'7 6.9 210 / 211013.8 8.1 4.5 7.9
2020-Jan-16 11:00N 58°19' E 005°09'2109.8
2020-Jan-16 11:00N 58°18' E 005°06'0 0.0 230 / 211012.6 8.1 4.0 7.9
2020-Jan-16 10:00N 58°18' E 005°06'919.0 240 / 231012.1 8.0 2.9 7.5
2020-Jan-16 09:30N 58°27' E 005°09'3 6.1
2020-Jan-16 09:00N 58°30' E 005°06'5 9.2 240 / 291010.8 8.0 3.3 8.1
2020-Jan-16 08:30N 58°34' E 005°11'3 6.8
2020-Jan-16 08:00N 58°36' E 005°06'3 3.1 240 / 291009.5 8.0 3.5 8.0
2020-Jan-16 07:00N 58°36' E 005°12'6 6.0 240 / 311007.9 8.1 3.6 7.9
2020-Jan-16 06:00N 58°42' E 005°12'7 6.8 250 / 271006.6 8.2 3.6 7.7
2020-Jan-16 05:00N 58°48' E 005°18'4 8.8 250 / 271005.5 8.4 3.7 7.7
2020-Jan-16 04:30N 58°50' E 005°26'3 6.8
2020-Jan-16 04:00N 58°52' E 005°31'4270.0
2020-Jan-16 04:00N 58°48' E 005°30'1313.0 240 / 251004.0 8.4 4.1 7.5
2020-Jan-16 03:00N 59°01' E 005°33'2110.0
2020-Jan-16 03:00N 59°00' E 005°30'4 8.8 240 / 251002.1 8.5 4.5 7.7
2020-Jan-16 02:30N 59°02' E 005°38'815.7
2020-Jan-16 02:00N 58°54' E 005°42'4 9.0 220 / 81001.2 8.3 4.1 8.0
2020-Jan-16 01:30N 58°58' E 005°44'4 8.9
2020-Jan-16 01:00N 58°54' E 005°42'0 0.0 210 / 12999.7 8.1 3.8 8.1
2020-Jan-16 00:00N 58°54' E 005°42'4 8.2 210 / 8998.3 7.3 4.1 8.1
2020-Jan-15 23:27N 58°58' E 005°44'410.0
2020-Jan-15 23:00N 58°54' E 005°42'4 9.0 210 / 12997.6 7.5 3.9 8.2
2020-Jan-15 22:30N 58°58' E 005°44'4 9.0
2020-Jan-15 22:00N 58°54' E 005°42'0 0.0 190 / 12996.3 7.9 2.9 8.0
2020-Jan-15 21:00N 58°54' E 005°42'0 0.0 190 / 14995.4 8.2 2.7 8.1
2020-Jan-15 20:00N 58°54' E 005°42'44034.8 190 / 12994.7 7.4 3.2 8.1
2020-Jan-15 19:59N 58°58' E 005°44'0 0.0
2020-Jan-15 19:29N 58°58' E 005°44'4 9.0
2020-Jan-15 19:00N 58°54' E 005°42'0 0.0 180 / 12994.0 7.5 3.0 8.1
2020-Jan-15 18:00N 58°54' E 005°42'42302.8 190 / 12993.6 7.7 2.4 8.1
2020-Jan-15 17:59N 58°58' E 005°44'4 4.5
2020-Jan-15 17:00N 58°54' E 005°42'0 0.0 180 / 12992.9 7.7 2.4 8.0
2020-Jan-15 16:00N 58°54' E 005°42'0 0.0 180 / 12992.5 7.6 2.0 8.0
2020-Jan-15 15:00N 58°54' E 005°42'0 0.0 180 / 12992.5 7.7 1.9 8.0
2020-Jan-15 14:00N 58°54' E 005°42'41241.6 180 / 14991.7 7.7 1.7 7.9
2020-Jan-15 13:59N 58°58' E 005°44'4 4.5
2020-Jan-15 13:00N 58°54' E 005°42'4 8.9 190 / 14991.4 7.7 1.6 8.0
2020-Jan-15 12:29N 58°58' E 005°44'4 9.1
2020-Jan-15 12:00N 58°54' E 005°42'4 8.9 190 / 12991.1 8.0 1.4 8.0
2020-Jan-15 11:29N 58°58' E 005°44'4 9.1
2020-Jan-15 11:00N 58°54' E 005°42'0 0.0 190 / 12990.6 7.7 1.4 8.0
2020-Jan-15 10:00N 58°54' E 005°42'4 9.1 200 / 12990.1 7.7 1.1 8.0
2020-Jan-15 09:30N 58°58' E 005°44'4 8.4
2020-Jan-15 09:00N 59°00' E 005°36'612.6 220 / 25988.4 7.5 1.4 7.7
2020-Jan-15 08:30N 59°06' E 005°31'1 1.5
2020-Jan-15 08:00N 59°06' E 005°30'9 8.6 220 / 33987.2 7.6 0.5 7.3
2020-Jan-15 07:00N 59°12' E 005°42'7 6.7 220 / 31986.1 7.4 1.0 6.5
2020-Jan-15 06:00N 59°18' E 005°48'1 0.9 230 / 29985.7 7.5 1.2 6.7
2020-Jan-15 05:00N 59°18' E 005°50'67255.3
2020-Jan-15 05:00N 59°12' E 005°48'   240 / 23985.2 7.5 1.6 7.0

Dump ship's entire track history